San Roberto — WDI9265 — position and weather

sailwx.info

Track history (hours):
 
Tides and Currents Weather Stations Pressure Air Temp Water Temp Dewpoint Dewpoint Depression Visibility Wind Speed Wind Dir Waves Ship Positions

San Roberto

Owner: Buffalo Marine Service, Inc., Houston, TX. More information available from US FCC via Universal Licensing System and Coast Guard Vessel Documentation Center.

Last reported at 2018-Jan-09 14:26 UTC. Time now 2018-Jan-20 03:35 UTC.
Position N 29°22' W 094°53'.
Warning: this ship's position is 10 days out of date.

Length 29 m; draft 3 m.

Type: Towing. MMSI: 367746950.

Date/timePositionNaut miles runAvg speedWind from/ knotsBaromVisibWave heightAir tempDewpointWater temp
2018-Jan-09 14:26N 29°22' W 094°53'  
2018-Jan-01 21:45N 29°30' W 094°52'2 6.9
2018-Jan-01 21:30N 29°31' W 094°53'3 7.0
2018-Jan-01 21:00N 29°34' W 094°56'4 7.6
2018-Jan-01 20:30N 29°38' W 094°58'4 8.0
2018-Jan-01 20:00N 29°41' W 094°59'4 6.9
2018-Jan-01 19:25N 29°44' W 095°03'0 0.3
2018-Jan-01 19:00N 29°44' W 095°03'0 0.0
2018-Jan-01 18:28N 29°44' W 095°03'0 0.0
2018-Jan-01 17:58N 29°44' W 095°03'0 0.0
2018-Jan-01 17:28N 29°44' W 095°03'0 0.0
2018-Jan-01 14:58N 29°44' W 095°03'0 0.0
2018-Jan-01 14:28N 29°44' W 095°03'0 0.0
2018-Jan-01 13:58N 29°44' W 095°03'0 0.0
2018-Jan-01 13:28N 29°44' W 095°03'0 0.0
2018-Jan-01 12:58N 29°44' W 095°03'0 0.0
2018-Jan-01 11:58N 29°44' W 095°03'0 0.0
2018-Jan-01 11:31N 29°44' W 095°03'0 0.1
2018-Jan-01 10:53N 29°44' W 095°03'0 0.1
2018-Jan-01 10:29N 29°44' W 095°03'0 0.0
2018-Jan-01 09:59N 29°44' W 095°03'0 0.0
2018-Jan-01 09:29N 29°44' W 095°03'0 0.0
2018-Jan-01 08:29N 29°44' W 095°03'0 0.0
2018-Jan-01 07:59N 29°44' W 095°03'0 0.0
2018-Jan-01 07:23N 29°44' W 095°03'0 0.0
2018-Jan-01 06:59N 29°44' W 095°03'0 0.0
2018-Jan-01 05:59N 29°44' W 095°03'0 0.0
2018-Jan-01 05:29N 29°44' W 095°03'0 0.0
2018-Jan-01 04:59N 29°44' W 095°03'0 0.0
2017-Dec-30 21:11N 29°44' W 095°03'0 0.0
2017-Dec-30 21:00N 29°44' W 095°03'0 0.1
2017-Dec-30 20:23N 29°44' W 095°03'0 0.3
2017-Dec-30 20:00N 29°44' W 095°03'0 0.1
2017-Dec-30 19:31N 29°44' W 095°03'0 0.0
2017-Dec-30 19:00N 29°44' W 095°03'0 0.0
2017-Dec-30 18:31N 29°44' W 095°03'0 0.0
2017-Dec-30 18:00N 29°44' W 095°03'0 0.0
2017-Dec-30 17:31N 29°44' W 095°03'0 0.0
2017-Dec-30 17:00N 29°44' W 095°03'0 0.0
2017-Dec-30 16:30N 29°44' W 095°03'0 0.0
2017-Dec-30 16:01N 29°44' W 095°03'0 0.0
2017-Dec-30 15:30N 29°44' W 095°03'0 0.0
2017-Dec-30 15:00N 29°44' W 095°03'0 0.0
2017-Dec-30 14:30N 29°44' W 095°03'  
Track history (hours):
 
Tides and Currents Weather Stations Pressure Air Temp Water Temp Dewpoint Dewpoint Depression Visibility Wind Speed Wind Dir Waves Ship Positions

San Roberto

Owner: Buffalo Marine Service, Inc., Houston, TX. More information available from US FCC via Universal Licensing System and Coast Guard Vessel Documentation Center.

Last reported at 2018-Jan-09 14:26 UTC. Time now 2018-Jan-20 03:35 UTC.
Position N 29°22' W 094°53'.
Warning: this ship's position is 10 days out of date.

Length 29 m; draft 3 m.

Type: Towing. MMSI: 367746950.

Date/timePositionNaut miles runAvg speedWind from/ knotsBaromVisibWave heightAir tempDewpointWater temp
2018-Jan-09 14:26N 29°22' W 094°53'  
2018-Jan-01 21:45N 29°30' W 094°52'2 6.9
2018-Jan-01 21:30N 29°31' W 094°53'3 7.0
2018-Jan-01 21:00N 29°34' W 094°56'4 7.6
2018-Jan-01 20:30N 29°38' W 094°58'4 8.0
2018-Jan-01 20:00N 29°41' W 094°59'4 6.9
2018-Jan-01 19:25N 29°44' W 095°03'0 0.3
2018-Jan-01 19:00N 29°44' W 095°03'0 0.0
2018-Jan-01 18:28N 29°44' W 095°03'0 0.0
2018-Jan-01 17:58N 29°44' W 095°03'0 0.0
2018-Jan-01 17:28N 29°44' W 095°03'0 0.0
2018-Jan-01 14:58N 29°44' W 095°03'0 0.0
2018-Jan-01 14:28N 29°44' W 095°03'0 0.0
2018-Jan-01 13:58N 29°44' W 095°03'0 0.0
2018-Jan-01 13:28N 29°44' W 095°03'0 0.0
2018-Jan-01 12:58N 29°44' W 095°03'0 0.0
2018-Jan-01 11:58N 29°44' W 095°03'0 0.0
2018-Jan-01 11:31N 29°44' W 095°03'0 0.1
2018-Jan-01 10:53N 29°44' W 095°03'0 0.1
2018-Jan-01 10:29N 29°44' W 095°03'0 0.0
2018-Jan-01 09:59N 29°44' W 095°03'0 0.0
2018-Jan-01 09:29N 29°44' W 095°03'0 0.0
2018-Jan-01 08:29N 29°44' W 095°03'0 0.0
2018-Jan-01 07:59N 29°44' W 095°03'0 0.0
2018-Jan-01 07:23N 29°44' W 095°03'0 0.0
2018-Jan-01 06:59N 29°44' W 095°03'0 0.0
2018-Jan-01 05:59N 29°44' W 095°03'0 0.0
2018-Jan-01 05:29N 29°44' W 095°03'0 0.0
2018-Jan-01 04:59N 29°44' W 095°03'0 0.0
2017-Dec-30 21:11N 29°44' W 095°03'0 0.0
2017-Dec-30 21:00N 29°44' W 095°03'0 0.1
2017-Dec-30 20:23N 29°44' W 095°03'0 0.3
2017-Dec-30 20:00N 29°44' W 095°03'0 0.1
2017-Dec-30 19:31N 29°44' W 095°03'0 0.0
2017-Dec-30 19:00N 29°44' W 095°03'0 0.0
2017-Dec-30 18:31N 29°44' W 095°03'0 0.0
2017-Dec-30 18:00N 29°44' W 095°03'0 0.0
2017-Dec-30 17:31N 29°44' W 095°03'0 0.0
2017-Dec-30 17:00N 29°44' W 095°03'0 0.0
2017-Dec-30 16:30N 29°44' W 095°03'0 0.0
2017-Dec-30 16:01N 29°44' W 095°03'0 0.0
2017-Dec-30 15:30N 29°44' W 095°03'0 0.0
2017-Dec-30 15:00N 29°44' W 095°03'0 0.0
2017-Dec-30 14:30N 29°44' W 095°03'  

Dump ship's entire track history